createdAt,value
2023-03-14T00:01:18.880Z,100132.66
2023-03-14T00:03:47.400Z,100135.88
2023-03-14T00:06:16.167Z,100144.22
2023-03-14T00:08:45.900Z,100133.72
2023-03-14T00:11:18.068Z,100133.59
2023-03-14T00:13:52.523Z,100118.63
2023-03-14T00:16:21.344Z,100110.19
2023-03-14T00:18:49.685Z,100088.97
2023-03-14T00:21:18.853Z,100072.63
2023-03-14T00:23:47.380Z,100071.69
2023-03-14T00:26:20.773Z,100070.50
2023-03-14T00:28:53.647Z,100074.50
2023-03-14T00:31:22.515Z,100054.44
2023-03-14T00:33:54.193Z,100055.63
2023-03-14T00:36:23.469Z,100043.75
2023-03-14T00:38:53.623Z,100037.56
2023-03-14T00:41:24.852Z,100039.63
2023-03-14T00:43:53.305Z,100034.75
2023-03-14T00:46:22.233Z,100024.22
2023-03-14T00:48:50.449Z,100034.66
2023-03-14T00:51:18.786Z,100014.44
2023-03-14T00:53:47.091Z,100013.13
2023-03-14T00:56:15.647Z,100021.06
2023-03-14T00:58:44.374Z,100025.25
2023-03-14T01:01:17.267Z,100018.38
2023-03-14T01:03:45.622Z,100010.34
2023-03-14T01:06:17.173Z,100008.50
2023-03-14T01:08:46.459Z,100004.56
2023-03-14T01:11:20.888Z,99976.91
2023-03-14T01:13:49.296Z,99972.63
2023-03-14T01:16:18.691Z,99958.16
2023-03-14T01:18:47.978Z,99962.59
2023-03-14T01:21:27.064Z,99942.72
2023-03-14T01:23:57.585Z,99939.56
2023-03-14T01:26:27.391Z,99925.19
2023-03-14T01:28:57.475Z,99925.09
2023-03-14T01:31:26.840Z,99923.94
2023-03-14T01:33:56.074Z,99913.78
2023-03-14T01:36:24.336Z,99910.53
2023-03-14T01:38:53.418Z,99897.59
2023-03-14T01:41:26.940Z,99885.22
2023-03-14T01:43:57.581Z,99885.31
2023-03-14T01:46:44.146Z,99891.66
2023-03-14T01:49:16.818Z,99873.97
2023-03-14T01:52:14.924Z,99869.13
2023-03-14T01:54:49.427Z,99853.22
2023-03-14T01:57:37.702Z,99849.25
2023-03-14T02:00:14.223Z,99853.16
2023-03-14T02:02:46.101Z,99838.28
2023-03-14T02:05:20.987Z,99843.63
2023-03-14T02:07:57.975Z,99854.84
2023-03-14T02:10:35.492Z,99843.00
2023-03-14T02:13:06.483Z,99849.72
2023-03-14T02:15:52.949Z,99850.66
2023-03-14T02:18:36.991Z,99849.47
2023-03-14T02:21:55.586Z,99838.88
2023-03-14T02:24:40.646Z,99820.09
2023-03-14T02:27:18.442Z,99827.75
2023-03-14T02:30:21.704Z,99816.19
2023-03-14T02:33:00.161Z,99810.34
2023-03-14T02:35:39.656Z,99792.06
2023-03-14T02:38:24.145Z,99776.06
2023-03-14T02:40:52.468Z,99749.50
2023-03-14T02:43:21.151Z,99756.75
2023-03-14T02:45:55.958Z,99718.13
2023-03-14T02:48:29.825Z,99729.63
2023-03-14T02:51:00.624Z,99713.91
2023-03-14T02:53:33.941Z,99703.50
2023-03-14T02:56:07.483Z,99667.53
2023-03-14T02:58:37.825Z,99657.38
2023-03-14T03:01:21.064Z,99627.81
2023-03-14T03:03:49.141Z,99649.44
2023-03-14T03:06:17.867Z,99674.72
2023-03-14T03:08:45.904Z,99685.88
2023-03-14T03:11:14.155Z,99676.66
2023-03-14T03:13:42.372Z,99660.78
2023-03-14T03:16:11.584Z,99655.72
2023-03-14T03:18:39.808Z,99640.09
2023-03-14T03:21:10.676Z,99637.41
2023-03-14T03:23:38.745Z,99627.28
2023-03-14T03:26:08.135Z,99629.78
2023-03-14T03:28:36.659Z,99633.50
2023-03-14T03:31:12.124Z,99634.22
2023-03-14T03:33:41.461Z,99650.63
2023-03-14T03:36:11.277Z,99670.72
2023-03-14T03:38:41.470Z,99671.00
2023-03-14T03:41:10.982Z,99646.78
2023-03-14T03:43:39.149Z,99649.47
2023-03-14T03:46:10.344Z,99653.19
2023-03-14T03:48:38.618Z,99667.28
2023-03-14T03:51:08.020Z,99664.31
2023-03-14T03:53:41.064Z,99665.50
2023-03-14T03:56:12.538Z,99663.34
2023-03-14T03:58:43.380Z,99653.09
2023-03-14T04:01:14.926Z,99636.53
2023-03-14T04:03:43.140Z,99619.81
2023-03-14T04:06:13.846Z,99620.97
2023-03-14T04:08:44.926Z,99621.47
2023-03-14T04:11:39.315Z,99616.31
2023-03-14T04:14:27.682Z,99608.25
2023-03-14T04:17:22.841Z,99589.63
2023-03-14T04:19:55.112Z,99586.63
2023-03-14T04:22:27.386Z,99582.25
2023-03-14T04:24:56.478Z,99582.56
2023-03-14T04:27:25.302Z,99574.56
2023-03-14T04:29:54.151Z,99553.59
2023-03-14T04:32:33.670Z,99562.50
2023-03-14T04:35:02.150Z,99561.16
2023-03-14T04:37:30.264Z,99555.66
2023-03-14T04:39:58.302Z,99567.38
2023-03-14T04:42:28.546Z,99609.75
2023-03-14T04:44:56.861Z,99625.44
2023-03-14T04:47:27.540Z,99652.72
2023-03-14T04:49:56.124Z,99684.75
2023-03-14T04:52:26.629Z,99693.56
2023-03-14T04:54:54.807Z,99691.06
2023-03-14T04:57:25.520Z,99701.25
2023-03-14T04:59:55.231Z,99720.38
2023-03-14T05:02:42.336Z,99738.19
2023-03-14T05:05:27.446Z,99740.56
2023-03-14T05:08:34.425Z,99731.91
2023-03-14T05:11:20.636Z,99773.59
2023-03-14T05:13:59.870Z,99759.00
2023-03-14T05:16:54.111Z,99748.44
2023-03-14T05:19:37.361Z,99730.13
2023-03-14T05:22:18.720Z,99725.59
2023-03-14T05:25:12.892Z,99734.59
2023-03-14T05:28:13.939Z,99714.75
2023-03-14T05:30:53.500Z,99705.25
2023-03-14T05:33:30.473Z,99701.97
2023-03-14T05:36:24.490Z,99711.59
2023-03-14T05:38:53.057Z,99706.94
2023-03-14T05:41:38.883Z,99694.09
2023-03-14T19:23:44.466Z,99501.72
2023-03-14T19:26:16.699Z,99507.91
2023-03-14T19:28:45.069Z,99517.09
2023-03-14T19:31:13.301Z,99510.41
2023-03-14T19:33:42.752Z,99515.19
2023-03-14T19:36:23.806Z,99525.78
2023-03-14T19:38:53.241Z,99523.72
2023-03-14T19:41:23.998Z,99531.44
2023-03-14T19:43:53.027Z,99522.34
2023-03-14T19:46:22.361Z,99531.88
2023-03-14T19:48:54.514Z,99543.31
2023-03-14T19:51:23.325Z,99546.19
2023-03-14T19:53:52.610Z,99538.47
2023-03-14T19:56:22.298Z,99542.69
2023-03-14T19:58:50.784Z,99544.56
2023-03-14T20:01:19.063Z,99546.91
2023-03-14T20:03:51.935Z,99552.28
2023-03-14T20:06:21.979Z,99555.81
2023-03-14T20:08:49.990Z,99555.81
2023-03-14T20:11:18.290Z,99553.78
2023-03-14T20:13:46.674Z,99553.59
2023-03-14T20:16:15.017Z,99551.94
2023-03-14T20:18:43.393Z,99559.16
2023-03-14T20:21:16.051Z,99549.78
2023-03-14T20:23:44.898Z,99560.84
2023-03-14T20:26:13.072Z,99572.97
2023-03-14T20:28:42.916Z,99575.97
2023-03-14T20:31:11.314Z,99571.78
2023-03-14T20:33:39.700Z,99579.69
2023-03-14T20:36:08.428Z,99579.16
2023-03-14T20:38:38.159Z,99579.34
2023-03-14T20:41:07.971Z,99583.00
2023-03-14T20:43:36.161Z,99573.78
2023-03-14T20:46:05.145Z,99584.53
2023-03-14T20:48:33.607Z,99579.53
2023-03-14T20:51:02.130Z,99579.00
2023-03-14T20:53:30.452Z,99579.00
2023-03-14T20:55:59.000Z,99582.88
2023-03-14T20:58:27.594Z,99584.72
2023-03-14T21:00:57.178Z,99583.38
2023-03-14T21:03:26.054Z,99588.56
2023-03-14T21:05:54.583Z,99585.19
2023-03-14T21:08:25.489Z,99582.53
2023-03-14T21:10:55.652Z,99583.88
2023-03-14T21:13:24.862Z,99588.41
2023-03-14T21:15:53.430Z,99594.75
2023-03-14T21:18:23.498Z,99597.44
2023-03-14T21:20:54.930Z,99603.13
2023-03-14T21:23:26.906Z,99602.47
2023-03-14T21:25:59.731Z,99615.22
2023-03-14T21:28:28.233Z,99614.38
2023-03-14T21:30:56.553Z,99623.59
2023-03-14T21:33:24.737Z,99637.03
2023-03-14T21:35:53.533Z,99640.03
2023-03-14T21:38:21.743Z,99633.34
2023-03-14T21:40:50.478Z,99637.50
2023-03-14T21:43:22.046Z,99633.34
2023-03-14T21:45:50.489Z,99640.53
2023-03-14T21:48:19.208Z,99639.53
2023-03-14T21:50:47.932Z,99645.22
2023-03-14T21:53:16.250Z,99647.75
2023-03-14T21:55:46.219Z,99652.94
2023-03-14T21:58:15.215Z,99650.94
2023-03-14T22:00:50.715Z,99647.56
2023-03-14T22:03:23.602Z,99652.09
2023-03-14T22:05:52.618Z,99652.44
2023-03-14T22:08:21.009Z,99660.78
2023-03-14T22:10:51.608Z,99659.13
2023-03-14T22:13:21.310Z,99672.53
2023-03-14T22:15:51.126Z,99665.50
2023-03-14T22:18:19.917Z,99664.97
2023-03-14T22:20:48.185Z,99673.19
2023-03-14T22:23:16.245Z,99669.00
2023-03-14T22:25:47.021Z,99674.53
2023-03-14T22:28:15.449Z,99668.31
2023-03-14T22:30:47.979Z,99671.13
2023-03-14T22:33:17.818Z,99666.06
2023-03-14T22:35:53.464Z,99678.22
2023-03-14T22:38:21.614Z,99679.06
2023-03-14T22:40:49.762Z,99678.84
2023-03-14T22:43:18.017Z,99682.31
2023-03-14T22:45:46.392Z,99681.47
2023-03-14T22:48:15.579Z,99679.81
2023-03-14T22:50:43.733Z,99681.66
2023-03-14T22:53:11.717Z,99696.72
2023-03-14T22:55:39.789Z,99695.22
2023-03-14T22:58:08.206Z,99695.50
2023-03-14T23:00:36.357Z,99694.69
2023-03-14T23:03:04.485Z,99702.00
2023-03-14T23:05:32.476Z,99707.72
2023-03-14T23:08:00.500Z,99705.34
2023-03-14T23:10:28.506Z,99712.84
2023-03-14T23:12:58.239Z,99707.78
2023-03-14T23:15:26.942Z,99717.66
2023-03-14T23:17:55.260Z,99715.16
2023-03-14T23:20:24.270Z,99717.16
2023-03-14T23:22:52.340Z,99723.66
2023-03-14T23:25:20.545Z,99725.59
2023-03-14T23:27:49.265Z,99729.44
2023-03-14T23:30:20.972Z,99733.13
2023-03-14T23:32:49.064Z,99725.56
2023-03-14T23:35:17.327Z,99722.00
2023-03-14T23:37:45.496Z,99726.44
2023-03-14T23:40:13.678Z,99721.69
2023-03-14T23:42:41.892Z,99730.88
2023-03-14T23:45:09.971Z,99737.22
2023-03-14T23:47:37.966Z,99745.91
2023-03-14T23:50:06.763Z,99745.81
2023-03-14T23:52:34.891Z,99756.59
2023-03-14T23:55:03.845Z,99756.81
2023-03-14T23:57:32.395Z,99749.66
